createdAt,value
2019-03-01T00:00:16.443Z,10.18
2019-03-01T00:05:22.443Z,10.07
2019-03-01T00:10:49.263Z,9.98
2019-03-01T00:16:08.663Z,9.94
2019-03-01T00:21:31.296Z,9.94
2019-03-01T00:26:49.200Z,9.88
2019-03-01T00:31:51.685Z,9.90
2019-03-01T00:36:54.446Z,9.88
2019-03-01T00:42:14.965Z,9.91
2019-03-01T00:47:11.380Z,9.83
2019-03-01T00:52:07.499Z,9.87
2019-03-01T00:57:04.315Z,9.96
2019-03-01T01:02:00.344Z,9.92
2019-03-01T01:06:56.260Z,9.92
2019-03-01T01:11:52.271Z,9.89
2019-03-01T01:16:48.191Z,9.71
2019-03-01T01:21:44.105Z,9.73
2019-03-01T01:26:40.019Z,9.74
2019-03-01T01:31:35.987Z,9.77
2019-03-01T01:36:31.902Z,9.92
2019-03-01T01:41:27.824Z,9.69
2019-03-01T01:46:24.092Z,9.90
2019-03-01T01:51:20.026Z,9.83
2019-03-01T01:56:16.139Z,9.68
2019-03-01T02:01:12.058Z,9.67
2019-03-01T02:06:07.974Z,9.76
2019-03-01T02:11:03.919Z,9.67
2019-03-01T02:15:59.886Z,9.52
2019-03-01T02:20:55.798Z,9.39
2019-03-01T02:25:51.755Z,9.34
2019-03-01T02:30:50.968Z,9.28
2019-03-01T02:35:46.887Z,9.17
2019-03-01T02:40:42.811Z,9.42
2019-03-01T02:45:39.243Z,9.42
2019-03-01T02:50:35.363Z,9.29
2019-03-01T02:55:31.336Z,9.13
2019-03-01T03:00:28.504Z,9.50
2019-03-01T03:05:24.627Z,9.47
2019-03-01T03:10:20.604Z,9.77
2019-03-01T03:15:29.568Z,9.83
2019-03-01T03:20:25.550Z,9.79
2019-03-01T03:25:21.611Z,9.71
2019-03-01T03:30:18.529Z,9.64
2019-03-01T03:35:14.453Z,9.67
2019-03-01T03:40:12.354Z,9.65
2019-03-01T03:45:22.626Z,9.64
2019-03-01T03:50:18.595Z,9.62
2019-03-01T03:55:15.722Z,9.63
2019-03-01T04:00:17.753Z,9.60
2019-03-01T04:05:13.776Z,9.58
2019-03-01T04:10:10.406Z,9.54
2019-03-01T04:15:15.344Z,9.64
2019-03-01T04:20:16.618Z,9.61
2019-03-01T04:25:12.631Z,9.71
2019-03-01T04:30:30.339Z,9.64
2019-03-01T04:35:26.286Z,9.59
2019-03-01T04:40:22.195Z,9.62
2019-03-01T04:45:20.751Z,9.45
2019-03-01T04:50:16.674Z,9.57
2019-03-01T04:55:15.654Z,9.58
2019-03-01T05:00:19.885Z,9.60
2019-03-01T05:05:15.895Z,9.50
2019-03-01T05:10:12.917Z,9.47
2019-03-01T05:15:15.130Z,9.55
2019-03-01T05:20:11.146Z,9.52
2019-03-01T05:25:08.276Z,9.51
2019-03-01T05:30:07.286Z,9.42
2019-03-01T05:35:04.233Z,9.41
2019-03-01T05:40:00.298Z,9.45
2019-03-01T05:45:12.478Z,9.28
2019-03-01T05:50:11.198Z,9.30
2019-03-01T05:55:08.116Z,9.26
2019-03-01T06:00:08.746Z,9.39
2019-03-01T06:05:08.308Z,9.46
2019-03-01T06:10:20.299Z,9.49
2019-03-01T06:15:28.209Z,9.47
2019-03-01T06:20:49.532Z,9.47
2019-03-01T06:26:01.499Z,9.48
2019-03-01T06:31:07.045Z,9.51
2019-03-01T06:36:13.154Z,9.39
2019-03-01T06:41:26.882Z,9.43
2019-03-01T06:46:38.653Z,9.39
2019-03-01T06:51:34.571Z,9.32
2019-03-01T06:56:30.584Z,9.34
2019-03-01T07:01:27.997Z,9.23
2019-03-01T07:06:24.009Z,9.13
2019-03-01T07:11:19.941Z,9.10
2019-03-01T07:16:15.849Z,9.09
2019-03-01T07:21:11.764Z,9.18
2019-03-01T07:26:07.670Z,9.10
2019-03-01T07:31:03.695Z,9.11
2019-03-01T07:35:59.610Z,9.13
2019-03-01T07:40:55.523Z,9.21
2019-03-01T07:45:52.431Z,9.37
2019-03-01T07:50:48.380Z,9.29
2019-03-01T07:55:46.469Z,9.42
2019-03-01T08:00:42.078Z,9.24
2019-03-01T08:05:39.543Z,9.28
2019-03-01T08:10:35.870Z,9.31
2019-03-01T08:15:32.452Z,9.38
2019-03-01T08:20:30.346Z,9.39
2019-03-01T08:25:28.448Z,9.47
2019-03-01T08:30:24.027Z,9.54
2019-03-01T08:35:20.087Z,9.49
2019-03-01T08:40:19.110Z,9.53
2019-03-01T08:45:17.233Z,9.53
2019-03-01T08:50:16.355Z,9.58
2019-03-01T08:55:15.274Z,9.98
2019-03-01T09:00:14.627Z,9.97
2019-03-01T09:05:11.648Z,10.03
2019-03-01T09:10:15.686Z,10.10
2019-03-01T09:15:15.554Z,10.25
2019-03-01T09:20:15.913Z,10.24
2019-03-01T09:25:13.332Z,10.37
2019-03-01T09:30:15.130Z,10.07
2019-03-01T09:35:30.383Z,9.85
2019-03-01T09:40:29.028Z,9.62
2019-03-01T09:45:35.815Z,9.67
2019-03-01T09:50:26.953Z,9.55
2019-03-01T09:55:22.973Z,9.57
2019-03-01T10:00:25.258Z,9.41
2019-03-01T10:05:21.239Z,9.49
2019-03-01T10:10:22.983Z,9.62
2019-03-01T10:15:19.641Z,9.55
2019-03-01T10:20:15.595Z,9.53
2019-03-01T10:25:13.307Z,9.54
2019-03-01T10:30:13.037Z,9.56
2019-03-01T10:35:10.270Z,9.59
2019-03-01T10:40:09.087Z,9.60
2019-03-01T10:45:16.988Z,9.71
2019-03-01T10:50:13.037Z,9.84
2019-03-01T10:55:14.066Z,9.95
2019-03-01T11:00:28.662Z,10.31
2019-03-01T11:05:25.279Z,10.30
2019-03-01T11:10:28.031Z,10.31
2019-03-01T11:15:24.895Z,10.14
2019-03-01T11:20:21.570Z,9.18
2019-03-01T11:25:21.839Z,8.64
2019-03-01T11:30:21.565Z,8.68
2019-03-01T11:35:17.485Z,8.64
2019-03-01T11:40:18.627Z,8.39
2019-03-01T11:45:17.292Z,8.19
2019-03-01T11:50:15.712Z,8.09
2019-03-01T11:55:11.727Z,7.86
2019-03-01T12:00:17.606Z,7.91
2019-03-01T12:05:14.021Z,8.27
2019-03-01T12:10:13.137Z,8.16
2019-03-01T12:15:13.443Z,8.17
2019-03-01T12:20:18.190Z,8.17
2019-03-01T12:25:14.199Z,7.67
2019-03-01T12:30:16.006Z,7.51
2019-03-01T12:35:12.024Z,7.32
2019-03-01T12:40:14.608Z,7.06
2019-03-01T12:45:19.611Z,7.02
2019-03-01T12:50:15.959Z,6.81
2019-03-01T12:55:23.101Z,6.93
2019-03-01T13:00:28.590Z,6.80
2019-03-01T13:05:25.562Z,6.65
2019-03-01T13:10:28.207Z,6.71
2019-03-01T13:15:24.960Z,6.84
2019-03-01T13:20:21.018Z,6.75
2019-03-01T13:25:17.096Z,6.82
2019-03-01T13:30:20.690Z,6.80
2019-03-01T13:35:18.437Z,6.87
2019-03-01T13:40:20.934Z,6.95
2019-03-01T13:45:20.539Z,6.87
2019-03-01T13:50:22.145Z,6.84
2019-03-01T13:55:22.490Z,6.84
2019-03-01T14:00:20.680Z,6.69
2019-03-01T14:05:18.048Z,6.62
2019-03-01T14:10:20.139Z,6.54
2019-03-01T14:15:18.406Z,6.44
2019-03-01T14:20:20.592Z,6.20
2019-03-01T14:25:20.163Z,6.18
2019-03-01T14:30:19.017Z,6.15
2019-03-01T14:35:15.275Z,6.16
2019-03-01T14:40:14.808Z,6.17
2019-03-01T14:45:19.769Z,6.18
2019-03-01T14:50:19.686Z,6.06
2019-03-01T14:55:30.140Z,6.05
2019-03-01T15:00:59.418Z,5.98
2019-03-01T15:05:56.437Z,5.95
2019-03-01T15:10:52.519Z,5.89
2019-03-01T15:15:49.132Z,5.74
2019-03-01T15:20:45.005Z,5.70
2019-03-01T15:25:40.942Z,5.65
2019-03-01T15:30:36.851Z,5.65
2019-03-01T15:35:36.398Z,5.65
2019-03-01T15:40:32.618Z,5.74
2019-03-01T15:45:28.624Z,5.70
2019-03-01T15:50:27.347Z,5.69
2019-03-01T15:55:22.501Z,5.70
2019-03-01T16:00:25.566Z,5.87
2019-03-01T16:05:19.876Z,5.75
2019-03-01T16:10:17.310Z,5.61
2019-03-01T16:15:16.675Z,5.58
2019-03-01T16:20:37.423Z,5.52
2019-03-01T16:25:33.343Z,5.44
2019-03-01T16:30:29.277Z,5.49
2019-03-01T16:35:25.228Z,5.56
2019-03-01T16:40:21.919Z,5.48
2019-03-01T16:45:22.009Z,5.53
2019-03-01T16:50:20.571Z,5.39
2019-03-01T16:55:24.332Z,5.38
2019-03-01T17:00:22.203Z,5.45
2019-03-01T17:05:18.363Z,5.48
2019-03-01T17:10:16.185Z,5.49
2019-03-01T17:15:15.437Z,5.51
2019-03-01T17:20:12.651Z,5.41
2019-03-01T17:25:10.888Z,5.32
2019-03-01T17:30:11.116Z,5.32
2019-03-01T17:35:09.622Z,5.23
2019-03-01T17:40:18.566Z,5.20
2019-03-01T17:45:20.869Z,5.34
2019-03-01T17:50:15.478Z,5.31
2019-03-01T17:55:12.984Z,5.38
2019-03-01T18:00:27.801Z,5.48
2019-03-01T18:05:23.763Z,5.47
2019-03-01T18:10:19.747Z,5.48
2019-03-01T18:15:15.974Z,5.58
2019-03-01T18:20:12.980Z,5.65
2019-03-01T18:25:10.614Z,5.67
2019-03-01T18:30:31.677Z,5.67
2019-03-01T18:35:27.656Z,5.61
2019-03-01T18:40:23.574Z,5.57
2019-03-01T18:45:25.136Z,5.52
2019-03-01T18:50:31.206Z,5.53
2019-03-01T18:55:25.443Z,5.47
2019-03-01T19:00:29.029Z,5.51
2019-03-01T19:05:25.099Z,5.45
2019-03-01T19:10:24.098Z,5.50
2019-03-01T19:15:20.965Z,5.53
2019-03-01T19:20:20.214Z,5.46
2019-03-01T19:25:25.288Z,5.57
2019-03-01T19:30:23.930Z,5.54
2019-03-01T19:35:20.910Z,5.54
2019-03-01T19:40:18.929Z,5.54
2019-03-01T19:45:16.355Z,5.42
2019-03-01T19:50:15.212Z,5.50
2019-03-01T19:55:12.638Z,5.49
2019-03-01T20:00:15.516Z,5.56
2019-03-01T20:05:15.428Z,5.53
2019-03-01T20:10:14.975Z,5.54
2019-03-01T20:15:14.963Z,5.54
2019-03-01T20:20:13.792Z,5.52
2019-03-01T20:25:16.005Z,5.57
2019-03-01T20:30:15.347Z,5.51
2019-03-01T20:35:12.880Z,5.46
2019-03-01T20:40:10.938Z,5.49
2019-03-01T20:45:31.855Z,5.49
2019-03-01T20:50:27.865Z,5.51
2019-03-01T20:55:24.152Z,5.48
2019-03-01T21:00:26.280Z,5.51
2019-03-01T21:05:20.594Z,5.58
2019-03-01T21:10:19.622Z,5.59
2019-03-01T21:15:17.151Z,5.54
2019-03-01T21:20:15.932Z,5.55
2019-03-01T21:25:16.725Z,5.50
2019-03-01T21:30:23.993Z,5.49
2019-03-01T21:35:20.620Z,5.56
2019-03-01T21:40:16.778Z,5.59
2019-03-01T21:45:17.854Z,5.56
2019-03-01T21:50:12.944Z,5.48
2019-03-01T21:55:40.803Z,5.44
2019-03-01T22:00:36.708Z,5.43
2019-03-01T22:05:32.618Z,5.48
2019-03-01T22:10:31.583Z,5.41
2019-03-01T22:15:27.290Z,5.42
2019-03-01T22:20:23.502Z,5.47
2019-03-01T22:25:19.487Z,5.37
2019-03-01T22:30:23.028Z,5.44
2019-03-01T22:35:19.589Z,5.51
2019-03-01T22:40:15.514Z,5.50
2019-03-01T22:45:14.600Z,5.52
2019-03-01T22:50:17.715Z,5.47
2019-03-01T22:55:16.337Z,5.46
2019-03-01T23:00:48.362Z,5.45
2019-03-01T23:05:44.470Z,5.35
2019-03-01T23:10:40.485Z,5.29
2019-03-01T23:15:43.299Z,5.27
2019-03-01T23:20:38.100Z,5.32
2019-03-01T23:25:34.006Z,5.25
2019-03-01T23:30:29.942Z,5.25
2019-03-01T23:35:25.888Z,5.25
2019-03-01T23:40:21.899Z,5.18
2019-03-01T23:45:18.581Z,5.18
2019-03-01T23:50:14.688Z,5.26
2019-03-01T23:55:10.722Z,5.21
